<?xml version="1.0" encoding="UTF-8"?>
<gpx xmlns="http://www.topografix.com/GPX/1/1" xmlns:xsi="http://www.w3.org/2001/XMLSchema-instance" version="1.1" xsi:schemaLocation="http://www.topografix.com/GPX/1/1 http://www.topografix.com/GPX/1/1/gpx.xsd">
  <metadata>
    <name>Great Floridian Multisport Festival - Triple Aquabike</name>
  </metadata>
  <trk>
    <name>Great Floridian Multisport Festival - Triple Aquabike</name>
    <trkseg>
      <trkpt lat="28.560664" lon="-81.759997">
        <ele>34.600074</ele>
        <time>2026-10-18T07:54:08.000Z</time>
      </trkpt>
      <trkpt lat="28.560739" lon="-81.759812">
        <ele>34.60008</ele>
        <time>2026-10-18T07:54:10.000Z</time>
      </trkpt>
      <trkpt lat="28.559954" lon="-81.759781">
        <ele>34.754328</ele>
        <time>2026-10-18T07:54:19.000Z</time>
      </trkpt>
      <trkpt lat="28.559791" lon="-81.759788">
        <ele>35.12328</ele>
        <time>2026-10-18T07:54:21.000Z</time>
      </trkpt>
      <trkpt lat="28.559281" lon="-81.759576">
        <ele>36.337605</ele>
        <time>2026-10-18T07:54:27.000Z</time>
      </trkpt>
      <trkpt lat="28.558687" lon="-81.759588">
        <ele>37.681303</ele>
        <time>2026-10-18T07:54:34.000Z</time>
      </trkpt>
      <trkpt lat="28.558311" lon="-81.759748">
        <ele>38.618057</ele>
        <time>2026-10-18T07:54:38.000Z</time>
      </trkpt>
      <trkpt lat="28.558214" lon="-81.759786">
        <ele>38.95731</ele>
        <time>2026-10-18T07:54:39.000Z</time>
      </trkpt>
      <trkpt lat="28.557401" lon="-81.759797">
        <ele>41.850039</ele>
        <time>2026-10-18T07:54:48.000Z</time>
      </trkpt>
      <trkpt lat="28.55733" lon="-81.759789">
        <ele>42.123488</ele>
        <time>2026-10-18T07:54:49.000Z</time>
      </trkpt>
      <trkpt lat="28.557335" lon="-81.761543">
        <ele>46.571953</ele>
        <time>2026-10-18T07:55:06.000Z</time>
      </trkpt>
      <trkpt lat="28.557332" lon="-81.762806">
        <ele>48.823917</ele>
        <time>2026-10-18T07:55:18.000Z</time>
      </trkpt>
      <trkpt lat="28.557329" lon="-81.763276">
        <ele>48.2634</ele>
        <time>2026-10-18T07:55:23.000Z</time>
      </trkpt>
      <trkpt lat="28.557341" lon="-81.765086">
        <ele>45.564731</ele>
        <time>2026-10-18T07:55:41.000Z</time>
      </trkpt>
      <trkpt lat="28.557346" lon="-81.765481">
        <ele>44.271976</ele>
        <time>2026-10-18T07:55:45.000Z</time>
      </trkpt>
      <trkpt lat="28.557342" lon="-81.766273">
        <ele>41.741616</ele>
        <time>2026-10-18T07:55:53.000Z</time>
      </trkpt>
      <trkpt lat="28.557346" lon="-81.766898">
        <ele>39.716582</ele>
        <time>2026-10-18T07:55:59.000Z</time>
      </trkpt>
      <trkpt lat="28.557324" lon="-81.767811">
        <ele>37.887525</ele>
        <time>2026-10-18T07:56:08.000Z</time>
      </trkpt>
      <trkpt lat="28.557323" lon="-81.768649">
        <ele>36.171491</ele>
        <time>2026-10-18T07:56:16.000Z</time>
      </trkpt>
      <trkpt lat="28.557334" lon="-81.768721">
        <ele>36.01048</ele>
        <time>2026-10-18T07:56:17.000Z</time>
      </trkpt>
      <trkpt lat="28.557341" lon="-81.76973">
        <ele>35.685248</ele>
        <time>2026-10-18T07:56:27.000Z</time>
      </trkpt>
      <trkpt lat="28.557344" lon="-81.770318">
        <ele>35.739686</ele>
        <time>2026-10-18T07:56:33.000Z</time>
      </trkpt>
      <trkpt lat="28.557282" lon="-81.770418">
        <ele>35.750732</ele>
        <time>2026-10-18T07:56:34.000Z</time>
      </trkpt>
      <trkpt lat="28.557193" lon="-81.770453">
        <ele>35.760117</ele>
        <time>2026-10-18T07:56:35.000Z</time>
      </trkpt>
      <trkpt lat="28.556312" lon="-81.770448">
        <ele>35.034683</ele>
        <time>2026-10-18T07:56:45.000Z</time>
      </trkpt>
      <trkpt lat="28.556306" lon="-81.771403">
        <ele>33.785966</ele>
        <time>2026-10-18T07:56:54.000Z</time>
      </trkpt>
      <trkpt lat="28.556316" lon="-81.771528">
        <ele>33.608329</ele>
        <time>2026-10-18T07:56:55.000Z</time>
      </trkpt>
      <trkpt lat="28.556306" lon="-81.771604">
        <ele>33.515531</ele>
        <time>2026-10-18T07:56:56.000Z</time>
      </trkpt>
      <trkpt lat="28.556314" lon="-81.772442">
        <ele>33.068202</ele>
        <time>2026-10-18T07:57:04.000Z</time>
      </trkpt>
      <trkpt lat="28.556312" lon="-81.772492">
        <ele>33.066276</ele>
        <time>2026-10-18T07:57:04.000Z</time>
      </trkpt>
      <trkpt lat="28.556311" lon="-81.773482">
        <ele>33.032003</ele>
        <time>2026-10-18T07:57:14.000Z</time>
      </trkpt>
      <trkpt lat="28.556308" lon="-81.773848">
        <ele>33.019296</ele>
        <time>2026-10-18T07:57:18.000Z</time>
      </trkpt>
      <trkpt lat="28.556324" lon="-81.774893">
        <ele>33.558091</ele>
        <time>2026-10-18T07:57:28.000Z</time>
      </trkpt>
      <trkpt lat="28.556314" lon="-81.775588">
        <ele>33.9787</ele>
        <time>2026-10-18T07:57:35.000Z</time>
      </trkpt>
      <trkpt lat="28.556607" lon="-81.775594">
        <ele>34.178001</ele>
        <time>2026-10-18T07:57:38.000Z</time>
      </trkpt>
      <trkpt lat="28.557223" lon="-81.775597">
        <ele>33.766746</ele>
        <time>2026-10-18T07:57:45.000Z</time>
      </trkpt>
      <trkpt lat="28.557368" lon="-81.775587">
        <ele>33.643295</ele>
        <time>2026-10-18T07:57:47.000Z</time>
      </trkpt>
      <trkpt lat="28.558343" lon="-81.775598">
        <ele>32.773756</ele>
        <time>2026-10-18T07:57:58.000Z</time>
      </trkpt>
      <trkpt lat="28.558839" lon="-81.775647">
        <ele>32.33971</ele>
        <time>2026-10-18T07:58:04.000Z</time>
      </trkpt>
      <trkpt lat="28.559339" lon="-81.775757">
        <ele>31.866318</ele>
        <time>2026-10-18T07:58:10.000Z</time>
      </trkpt>
      <trkpt lat="28.559702" lon="-81.775826">
        <ele>31.5422</ele>
        <time>2026-10-18T07:58:14.000Z</time>
      </trkpt>
      <trkpt lat="28.55978" lon="-81.775851">
        <ele>31.467943</ele>
        <time>2026-10-18T07:58:15.000Z</time>
      </trkpt>
      <trkpt lat="28.560333" lon="-81.775972">
        <ele>30.994896</ele>
        <time>2026-10-18T07:58:21.000Z</time>
      </trkpt>
      <trkpt lat="28.560775" lon="-81.776067">
        <ele>30.776074</ele>
        <time>2026-10-18T07:58:26.000Z</time>
      </trkpt>
      <trkpt lat="28.561658" lon="-81.776249">
        <ele>30.353308</ele>
        <time>2026-10-18T07:58:36.000Z</time>
      </trkpt>
      <trkpt lat="28.562506" lon="-81.776429">
        <ele>30.118226</ele>
        <time>2026-10-18T07:58:46.000Z</time>
      </trkpt>
      <trkpt lat="28.565433" lon="-81.777061">
        <ele>29.764289</ele>
        <time>2026-10-18T07:59:19.000Z</time>
      </trkpt>
      <trkpt lat="28.565872" lon="-81.777142">
        <ele>29.701584</ele>
        <time>2026-10-18T07:59:24.000Z</time>
      </trkpt>
      <trkpt lat="28.567122" lon="-81.777369">
        <ele>29.512769</ele>
        <time>2026-10-18T07:59:38.000Z</time>
      </trkpt>
      <trkpt lat="28.567546" lon="-81.777492">
        <ele>29.547343</ele>
        <time>2026-10-18T07:59:43.000Z</time>
      </trkpt>
      <trkpt lat="28.568076" lon="-81.777723">
        <ele>29.747406</ele>
        <time>2026-10-18T07:59:49.000Z</time>
      </trkpt>
      <trkpt lat="28.568443" lon="-81.777965">
        <ele>29.895995</ele>
        <time>2026-10-18T07:59:54.000Z</time>
      </trkpt>
      <trkpt lat="28.568908" lon="-81.77833">
        <ele>30.092086</ele>
        <time>2026-10-18T08:00:00.000Z</time>
      </trkpt>
      <trkpt lat="28.570095" lon="-81.779379">
        <ele>30.561638</ele>
        <time>2026-10-18T08:00:17.000Z</time>
      </trkpt>
      <trkpt lat="28.570217" lon="-81.77948">
        <ele>30.610345</ele>
        <time>2026-10-18T08:00:19.000Z</time>
      </trkpt>
      <trkpt lat="28.570665" lon="-81.779891">
        <ele>30.609328</ele>
        <time>2026-10-18T08:00:25.000Z</time>
      </trkpt>
      <trkpt lat="28.57088" lon="-81.780015">
        <ele>30.57302</ele>
        <time>2026-10-18T08:00:28.000Z</time>
      </trkpt>
      <trkpt lat="28.570959" lon="-81.780056">
        <ele>30.560413</ele>
        <time>2026-10-18T08:00:29.000Z</time>
      </trkpt>
      <trkpt lat="28.571049" lon="-81.78004">
        <ele>30.548223</ele>
        <time>2026-10-18T08:00:30.000Z</time>
      </trkpt>
      <trkpt lat="28.571084" lon="-81.780056">
        <ele>30.541704</ele>
        <time>2026-10-18T08:00:30.000Z</time>
      </trkpt>
      <trkpt lat="28.571158" lon="-81.780181">
        <ele>30.52545</ele>
        <time>2026-10-18T08:00:31.000Z</time>
      </trkpt>
      <trkpt lat="28.571142" lon="-81.780237">
        <ele>30.518195</ele>
        <time>2026-10-18T08:00:32.000Z</time>
      </trkpt>
      <trkpt lat="28.571215" lon="-81.780313">
        <ele>30.502877</ele>
        <time>2026-10-18T08:00:33.000Z</time>
      </trkpt>
      <trkpt lat="28.571378" lon="-81.78053">
        <ele>30.467834</ele>
        <time>2026-10-18T08:00:36.000Z</time>
      </trkpt>
      <trkpt lat="28.574108" lon="-81.782932">
        <ele>30.376118</ele>
        <time>2026-10-18T08:01:14.000Z</time>
      </trkpt>
      <trkpt lat="28.574353" lon="-81.783188">
        <ele>30.36933</ele>
        <time>2026-10-18T08:01:18.000Z</time>
      </trkpt>
      <trkpt lat="28.5745" lon="-81.783346">
        <ele>30.365354</ele>
        <time>2026-10-18T08:01:20.000Z</time>
      </trkpt>
      <trkpt lat="28.574689" lon="-81.783614">
        <ele>30.327235</ele>
        <time>2026-10-18T08:01:23.000Z</time>
      </trkpt>
      <trkpt lat="28.574871" lon="-81.783908">
        <ele>30.27976</ele>
        <time>2026-10-18T08:01:27.000Z</time>
      </trkpt>
      <trkpt lat="28.57502" lon="-81.78425">
        <ele>30.23261</ele>
        <time>2026-10-18T08:01:31.000Z</time>
      </trkpt>
      <trkpt lat="28.575094" lon="-81.784446">
        <ele>30.203403</ele>
        <time>2026-10-18T08:01:33.000Z</time>
      </trkpt>
      <trkpt lat="28.575251" lon="-81.784946">
        <ele>30.135583</ele>
        <time>2026-10-18T08:01:38.000Z</time>
      </trkpt>
      <trkpt lat="28.575432" lon="-81.786446">
        <ele>30.486586</ele>
        <time>2026-10-18T08:01:53.000Z</time>
      </trkpt>
      <trkpt lat="28.575459" lon="-81.788079">
        <ele>30.714856</ele>
        <time>2026-10-18T08:02:09.000Z</time>
      </trkpt>
      <trkpt lat="28.577532" lon="-81.788182">
        <ele>30.256521</ele>
        <time>2026-10-18T08:02:32.000Z</time>
      </trkpt>
      <trkpt lat="28.578164" lon="-81.788182">
        <ele>29.989217</ele>
        <time>2026-10-18T08:02:39.000Z</time>
      </trkpt>
      <trkpt lat="28.578487" lon="-81.788148">
        <ele>29.906846</ele>
        <time>2026-10-18T08:02:43.000Z</time>
      </trkpt>
      <trkpt lat="28.579036" lon="-81.788032">
        <ele>29.851496</ele>
        <time>2026-10-18T08:02:49.000Z</time>
      </trkpt>
      <trkpt lat="28.579726" lon="-81.787809">
        <ele>29.77794</ele>
        <time>2026-10-18T08:02:57.000Z</time>
      </trkpt>
      <trkpt lat="28.580302" lon="-81.787549">
        <ele>29.638527</ele>
        <time>2026-10-18T08:03:04.000Z</time>
      </trkpt>
      <trkpt lat="28.581032" lon="-81.787216">
        <ele>29.347557</ele>
        <time>2026-10-18T08:03:13.000Z</time>
      </trkpt>
      <trkpt lat="28.581516" lon="-81.786999">
        <ele>29.155975</ele>
        <time>2026-10-18T08:03:19.000Z</time>
      </trkpt>
      <trkpt lat="28.582427" lon="-81.786573">
        <ele>29.399738</ele>
        <time>2026-10-18T08:03:30.000Z</time>
      </trkpt>
      <trkpt lat="28.582778" lon="-81.786308">
        <ele>29.569239</ele>
        <time>2026-10-18T08:03:35.000Z</time>
      </trkpt>
      <trkpt lat="28.58296" lon="-81.786124">
        <ele>29.669447</ele>
        <time>2026-10-18T08:03:38.000Z</time>
      </trkpt>
      <trkpt lat="28.583087" lon="-81.78594">
        <ele>29.751065</ele>
        <time>2026-10-18T08:03:40.000Z</time>
      </trkpt>
      <trkpt lat="28.583192" lon="-81.785702">
        <ele>29.850318</ele>
        <time>2026-10-18T08:03:43.000Z</time>
      </trkpt>
      <trkpt lat="28.583294" lon="-81.785325">
        <ele>29.998245</ele>
        <time>2026-10-18T08:03:47.000Z</time>
      </trkpt>
      <trkpt lat="28.583322" lon="-81.785199">
        <ele>30.046863</ele>
        <time>2026-10-18T08:03:48.000Z</time>
      </trkpt>
      <trkpt lat="28.583352" lon="-81.784974">
        <ele>30.134285</ele>
        <time>2026-10-18T08:03:50.000Z</time>
      </trkpt>
      <trkpt lat="28.583356" lon="-81.782326">
        <ele>30.730861</ele>
        <time>2026-10-18T08:04:16.000Z</time>
      </trkpt>
      <trkpt lat="28.583372" lon="-81.781918">
        <ele>30.772746</ele>
        <time>2026-10-18T08:04:20.000Z</time>
      </trkpt>
      <trkpt lat="28.583411" lon="-81.781562">
        <ele>30.806273</ele>
        <time>2026-10-18T08:04:24.000Z</time>
      </trkpt>
      <trkpt lat="28.583501" lon="-81.781141">
        <ele>30.841442</ele>
        <time>2026-10-18T08:04:28.000Z</time>
      </trkpt>
      <trkpt lat="28.583604" lon="-81.780796">
        <ele>30.87007</ele>
        <time>2026-10-18T08:04:32.000Z</time>
      </trkpt>
      <trkpt lat="28.583856" lon="-81.780174">
        <ele>30.925687</ele>
        <time>2026-10-18T08:04:39.000Z</time>
      </trkpt>
      <trkpt lat="28.584167" lon="-81.77962">
        <ele>31.067972</ele>
        <time>2026-10-18T08:04:45.000Z</time>
      </trkpt>
      <trkpt lat="28.584835" lon="-81.778743">
        <ele>31.589019</ele>
        <time>2026-10-18T08:04:56.000Z</time>
      </trkpt>
      <trkpt lat="28.585047" lon="-81.778477">
        <ele>31.749438</ele>
        <time>2026-10-18T08:05:00.000Z</time>
      </trkpt>
      <trkpt lat="28.586545" lon="-81.77659">
        <ele>33.481098</ele>
        <time>2026-10-18T08:05:25.000Z</time>
      </trkpt>
      <trkpt lat="28.586667" lon="-81.776449">
        <ele>33.528659</ele>
        <time>2026-10-18T08:05:27.000Z</time>
      </trkpt>
      <trkpt lat="28.588301" lon="-81.774339">
        <ele>34.211287</ele>
        <time>2026-10-18T08:05:54.000Z</time>
      </trkpt>
      <trkpt lat="28.588747" lon="-81.773685">
        <ele>34.420651</ele>
        <time>2026-10-18T08:06:02.000Z</time>
      </trkpt>
      <trkpt lat="28.589031" lon="-81.773093">
        <ele>34.758235</ele>
        <time>2026-10-18T08:06:09.000Z</time>
      </trkpt>
      <trkpt lat="28.589296" lon="-81.772404">
        <ele>35.153623</ele>
        <time>2026-10-18T08:06:16.000Z</time>
      </trkpt>
      <trkpt lat="28.589429" lon="-81.771896">
        <ele>35.434286</ele>
        <time>2026-10-18T08:06:21.000Z</time>
      </trkpt>
      <trkpt lat="28.5895" lon="-81.771512">
        <ele>35.244153</ele>
        <time>2026-10-18T08:06:25.000Z</time>
      </trkpt>
      <trkpt lat="28.58956" lon="-81.770819">
        <ele>34.546382</ele>
        <time>2026-10-18T08:06:32.000Z</time>
      </trkpt>
      <trkpt lat="28.589601" lon="-81.770059">
        <ele>33.759365</ele>
        <time>2026-10-18T08:06:39.000Z</time>
      </trkpt>
      <trkpt lat="28.58971" lon="-81.767598">
        <ele>30.509825</ele>
        <time>2026-10-18T08:07:03.000Z</time>
      </trkpt>
      <trkpt lat="28.589753" lon="-81.766577">
        <ele>30.081076</ele>
        <time>2026-10-18T08:07:13.000Z</time>
      </trkpt>
      <trkpt lat="28.589811" lon="-81.765488">
        <ele>29.672315</ele>
        <time>2026-10-18T08:07:24.000Z</time>
      </trkpt>
      <trkpt lat="28.589856" lon="-81.765219">
        <ele>29.653072</ele>
        <time>2026-10-18T08:07:27.000Z</time>
      </trkpt>
      <trkpt lat="28.590003" lon="-81.764712">
        <ele>29.616097</ele>
        <time>2026-10-18T08:07:32.000Z</time>
      </trkpt>
      <trkpt lat="28.59003" lon="-81.764636">
        <ele>29.609859</ele>
        <time>2026-10-18T08:07:33.000Z</time>
      </trkpt>
      <trkpt lat="28.590363" lon="-81.763678">
        <ele>29.542133</ele>
        <time>2026-10-18T08:07:43.000Z</time>
      </trkpt>
      <trkpt lat="28.590433" lon="-81.763056">
        <ele>29.685752</ele>
        <time>2026-10-18T08:07:49.000Z</time>
      </trkpt>
      <trkpt lat="28.590423" lon="-81.762378">
        <ele>29.8364</ele>
        <time>2026-10-18T08:07:56.000Z</time>
      </trkpt>
      <trkpt lat="28.590423" lon="-81.761913">
        <ele>29.942926</ele>
        <time>2026-10-18T08:08:01.000Z</time>
      </trkpt>
      <trkpt lat="28.590148" lon="-81.761897">
        <ele>30.021188</ele>
        <time>2026-10-18T08:08:04.000Z</time>
      </trkpt>
      <trkpt lat="28.589917" lon="-81.761796">
        <ele>30.15875</ele>
        <time>2026-10-18T08:08:07.000Z</time>
      </trkpt>
      <trkpt lat="28.588542" lon="-81.76091">
        <ele>31.018113</ele>
        <time>2026-10-18T08:08:25.000Z</time>
      </trkpt>
      <trkpt lat="28.58799" lon="-81.760504">
        <ele>31.225213</ele>
        <time>2026-10-18T08:08:32.000Z</time>
      </trkpt>
      <trkpt lat="28.587418" lon="-81.75998">
        <ele>31.457779</ele>
        <time>2026-10-18T08:08:40.000Z</time>
      </trkpt>
      <trkpt lat="28.587245" lon="-81.759814">
        <ele>31.528134</ele>
        <time>2026-10-18T08:08:43.000Z</time>
      </trkpt>
      <trkpt lat="28.586347" lon="-81.75873">
        <ele>30.903148</ele>
        <time>2026-10-18T08:08:58.000Z</time>
      </trkpt>
      <trkpt lat="28.585928" lon="-81.758227">
        <ele>30.571108</ele>
        <time>2026-10-18T08:09:05.000Z</time>
      </trkpt>
      <trkpt lat="28.585602" lon="-81.757838">
        <ele>30.515743</ele>
        <time>2026-10-18T08:09:10.000Z</time>
      </trkpt>
      <trkpt lat="28.58508" lon="-81.757269">
        <ele>30.430543</ele>
        <time>2026-10-18T08:09:18.000Z</time>
      </trkpt>
      <trkpt lat="28.58444" lon="-81.756632">
        <ele>30.438813</ele>
        <time>2026-10-18T08:09:27.000Z</time>
      </trkpt>
      <trkpt lat="28.583953" lon="-81.756194">
        <ele>30.635852</ele>
        <time>2026-10-18T08:09:34.000Z</time>
      </trkpt>
      <trkpt lat="28.582733" lon="-81.755345">
        <ele>31.049519</ele>
        <time>2026-10-18T08:09:50.000Z</time>
      </trkpt>
      <trkpt lat="28.5823" lon="-81.755066">
        <ele>31.173296</ele>
        <time>2026-10-18T08:09:56.000Z</time>
      </trkpt>
      <trkpt lat="28.581756" lon="-81.754748">
        <ele>31.325869</ele>
        <time>2026-10-18T08:10:03.000Z</time>
      </trkpt>
      <trkpt lat="28.581138" lon="-81.754405">
        <ele>31.376708</ele>
        <time>2026-10-18T08:10:11.000Z</time>
      </trkpt>
      <trkpt lat="28.580962" lon="-81.75432">
        <ele>31.37933</ele>
        <time>2026-10-18T08:10:13.000Z</time>
      </trkpt>
      <trkpt lat="28.580782" lon="-81.754238">
        <ele>31.381898</ele>
        <time>2026-10-18T08:10:15.000Z</time>
      </trkpt>
      <trkpt lat="28.580178" lon="-81.753979">
        <ele>31.390681</ele>
        <time>2026-10-18T08:10:22.000Z</time>
      </trkpt>
      <trkpt lat="28.579913" lon="-81.753883">
        <ele>31.394342</ele>
        <time>2026-10-18T08:10:25.000Z</time>
      </trkpt>
      <trkpt lat="28.579656" lon="-81.753782">
        <ele>31.504438</ele>
        <time>2026-10-18T08:10:28.000Z</time>
      </trkpt>
      <trkpt lat="28.579288" lon="-81.753649">
        <ele>31.659643</ele>
        <time>2026-10-18T08:10:32.000Z</time>
      </trkpt>
      <trkpt lat="28.578368" lon="-81.753393">
        <ele>32.02995</ele>
        <time>2026-10-18T08:10:43.000Z</time>
      </trkpt>
      <trkpt lat="28.577477" lon="-81.753235">
        <ele>32.153997</ele>
        <time>2026-10-18T08:10:53.000Z</time>
      </trkpt>
      <trkpt lat="28.576592" lon="-81.753204">
        <ele>32.211297</ele>
        <time>2026-10-18T08:11:03.000Z</time>
      </trkpt>
      <trkpt lat="28.576002" lon="-81.753197">
        <ele>32.364893</ele>
        <time>2026-10-18T08:11:10.000Z</time>
      </trkpt>
      <trkpt lat="28.575868" lon="-81.75318">
        <ele>32.41326</ele>
        <time>2026-10-18T08:11:11.000Z</time>
      </trkpt>
      <trkpt lat="28.575863" lon="-81.753191">
        <ele>32.415288</ele>
        <time>2026-10-18T08:11:11.000Z</time>
      </trkpt>
      <trkpt lat="28.575809" lon="-81.753154">
        <ele>32.435904</ele>
        <time>2026-10-18T08:11:12.000Z</time>
      </trkpt>
      <trkpt lat="28.575798" lon="-81.753156">
        <ele>32.441854</ele>
        <time>2026-10-18T08:11:12.000Z</time>
      </trkpt>
      <trkpt lat="28.575743" lon="-81.753139">
        <ele>32.458216</ele>
        <time>2026-10-18T08:11:13.000Z</time>
      </trkpt>
      <trkpt lat="28.575683" lon="-81.753065">
        <ele>32.489271</ele>
        <time>2026-10-18T08:11:14.000Z</time>
      </trkpt>
      <trkpt lat="28.575651" lon="-81.752948">
        <ele>32.524091</ele>
        <time>2026-10-18T08:11:15.000Z</time>
      </trkpt>
      <trkpt lat="28.575657" lon="-81.751975">
        <ele>32.832667</ele>
        <time>2026-10-18T08:11:25.000Z</time>
      </trkpt>
      <trkpt lat="28.575411" lon="-81.751976">
        <ele>32.777763</ele>
        <time>2026-10-18T08:11:28.000Z</time>
      </trkpt>
      <trkpt lat="28.574741" lon="-81.751977">
        <ele>32.327435</ele>
        <time>2026-10-18T08:11:35.000Z</time>
      </trkpt>
      <trkpt lat="28.574325" lon="-81.751969">
        <ele>32.054718</ele>
        <time>2026-10-18T08:11:40.000Z</time>
      </trkpt>
      <trkpt lat="28.573741" lon="-81.751983">
        <ele>31.702002</ele>
        <time>2026-10-18T08:11:46.000Z</time>
      </trkpt>
      <trkpt lat="28.573141" lon="-81.751984">
        <ele>32.151609</ele>
        <time>2026-10-18T08:11:53.000Z</time>
      </trkpt>
      <trkpt lat="28.572844" lon="-81.752022">
        <ele>32.382599</ele>
        <time>2026-10-18T08:11:56.000Z</time>
      </trkpt>
      <trkpt lat="28.572753" lon="-81.752052">
        <ele>32.453367</ele>
        <time>2026-10-18T08:11:57.000Z</time>
      </trkpt>
      <trkpt lat="28.572593" lon="-81.752161">
        <ele>32.59212</ele>
        <time>2026-10-18T08:11:59.000Z</time>
      </trkpt>
      <trkpt lat="28.572519" lon="-81.752235">
        <ele>32.675549</ele>
        <time>2026-10-18T08:12:00.000Z</time>
      </trkpt>
      <trkpt lat="28.572056" lon="-81.75284">
        <ele>33.030914</ele>
        <time>2026-10-18T08:12:08.000Z</time>
      </trkpt>
      <trkpt lat="28.571702" lon="-81.753252">
        <ele>32.953169</ele>
        <time>2026-10-18T08:12:14.000Z</time>
      </trkpt>
      <trkpt lat="28.571351" lon="-81.753525">
        <ele>32.888123</ele>
        <time>2026-10-18T08:12:19.000Z</time>
      </trkpt>
      <trkpt lat="28.57107" lon="-81.753678">
        <ele>32.837323</ele>
        <time>2026-10-18T08:12:22.000Z</time>
      </trkpt>
      <trkpt lat="28.570108" lon="-81.754064">
        <ele>32.625752</ele>
        <time>2026-10-18T08:12:33.000Z</time>
      </trkpt>
      <trkpt lat="28.567852" lon="-81.754827">
        <ele>32.478352</ele>
        <time>2026-10-18T08:12:59.000Z</time>
      </trkpt>
      <trkpt lat="28.565397" lon="-81.755638">
        <ele>33.630481</ele>
        <time>2026-10-18T08:13:27.000Z</time>
      </trkpt>
      <trkpt lat="28.56481" lon="-81.756122">
        <ele>34.407605</ele>
        <time>2026-10-18T08:13:35.000Z</time>
      </trkpt>
      <trkpt lat="28.56462" lon="-81.756216">
        <ele>34.636888</ele>
        <time>2026-10-18T08:13:37.000Z</time>
      </trkpt>
      <trkpt lat="28.563584" lon="-81.756214">
        <ele>36.45857</ele>
        <time>2026-10-18T08:13:49.000Z</time>
      </trkpt>
      <trkpt lat="28.562513" lon="-81.756221">
        <ele>39.949152</ele>
        <time>2026-10-18T08:14:01.000Z</time>
      </trkpt>
      <trkpt lat="28.562417" lon="-81.75621">
        <ele>40.275294</ele>
        <time>2026-10-18T08:14:02.000Z</time>
      </trkpt>
      <trkpt lat="28.562298" lon="-81.756227">
        <ele>40.633711</ele>
        <time>2026-10-18T08:14:03.000Z</time>
      </trkpt>
      <trkpt lat="28.560424" lon="-81.756224">
        <ele>44.574518</ele>
        <time>2026-10-18T08:14:24.000Z</time>
      </trkpt>
      <trkpt lat="28.560375" lon="-81.75622">
        <ele>44.668067</ele>
        <time>2026-10-18T08:14:25.000Z</time>
      </trkpt>
      <trkpt lat="28.559961" lon="-81.75623">
        <ele>44.776352</ele>
        <time>2026-10-18T08:14:30.000Z</time>
      </trkpt>
      <trkpt lat="28.559449" lon="-81.756237">
        <ele>44.795162</ele>
        <time>2026-10-18T08:14:36.000Z</time>
      </trkpt>
      <trkpt lat="28.559239" lon="-81.756236">
        <ele>44.802519</ele>
        <time>2026-10-18T08:14:38.000Z</time>
      </trkpt>
      <trkpt lat="28.55831" lon="-81.756235">
        <ele>44.473764</ele>
        <time>2026-10-18T08:14:48.000Z</time>
      </trkpt>
      <trkpt lat="28.558082" lon="-81.756236">
        <ele>44.112502</ele>
        <time>2026-10-18T08:14:51.000Z</time>
      </trkpt>
      <trkpt lat="28.557833" lon="-81.756238">
        <ele>43.735473</ele>
        <time>2026-10-18T08:14:54.000Z</time>
      </trkpt>
      <trkpt lat="28.557314" lon="-81.756242">
        <ele>42.900953</ele>
        <time>2026-10-18T08:15:00.000Z</time>
      </trkpt>
      <trkpt lat="28.557323" lon="-81.758054">
        <ele>41.011808</ele>
        <time>2026-10-18T08:15:18.000Z</time>
      </trkpt>
      <trkpt lat="28.557329" lon="-81.759792">
        <ele>39.336609</ele>
        <time>2026-10-18T08:15:35.000Z</time>
      </trkpt>
      <trkpt lat="28.557399" lon="-81.759785">
        <ele>39.242616</ele>
        <time>2026-10-18T08:15:36.000Z</time>
      </trkpt>
      <trkpt lat="28.558218" lon="-81.759784">
        <ele>38.248453</ele>
        <time>2026-10-18T08:15:45.000Z</time>
      </trkpt>
      <trkpt lat="28.558293" lon="-81.759752">
        <ele>38.129826</ele>
        <time>2026-10-18T08:15:46.000Z</time>
      </trkpt>
      <trkpt lat="28.558686" lon="-81.759584">
        <ele>37.396007</ele>
        <time>2026-10-18T08:15:51.000Z</time>
      </trkpt>
      <trkpt lat="28.559287" lon="-81.759571">
        <ele>36.262041</ele>
        <time>2026-10-18T08:15:58.000Z</time>
      </trkpt>
      <trkpt lat="28.559789" lon="-81.759783">
        <ele>35.237251</ele>
        <time>2026-10-18T08:16:04.000Z</time>
      </trkpt>
      <trkpt lat="28.559955" lon="-81.759769">
        <ele>34.925896</ele>
        <time>2026-10-18T08:16:06.000Z</time>
      </trkpt>
      <trkpt lat="28.560742" lon="-81.759821">
        <ele>34.681199</ele>
        <time>2026-10-18T08:16:15.000Z</time>
      </trkpt>
      <trkpt lat="28.560665" lon="-81.760005">
        <ele>34.69781</ele>
        <time>2026-10-18T08:16:17.000Z</time>
      </trkpt>
      <trkpt lat="28.560747" lon="-81.759814">
        <ele>34.7144</ele>
        <time>2026-10-18T08:16:19.000Z</time>
      </trkpt>
      <trkpt lat="28.559961" lon="-81.759779">
        <ele>34.786994</ele>
        <time>2026-10-18T08:16:28.000Z</time>
      </trkpt>
      <trkpt lat="28.559802" lon="-81.759786">
        <ele>35.117047</ele>
        <time>2026-10-18T08:16:30.000Z</time>
      </trkpt>
      <trkpt lat="28.559283" lon="-81.759564">
        <ele>36.365677</ele>
        <time>2026-10-18T08:16:36.000Z</time>
      </trkpt>
      <trkpt lat="28.558697" lon="-81.759579">
        <ele>37.74734</ele>
        <time>2026-10-18T08:16:43.000Z</time>
      </trkpt>
      <trkpt lat="28.558298" lon="-81.75975">
        <ele>38.710567</ele>
        <time>2026-10-18T08:16:48.000Z</time>
      </trkpt>
      <trkpt lat="28.558203" lon="-81.759792">
        <ele>38.931977</ele>
        <time>2026-10-18T08:16:49.000Z</time>
      </trkpt>
      <trkpt lat="28.557413" lon="-81.759781">
        <ele>41.826939</ele>
        <time>2026-10-18T08:16:58.000Z</time>
      </trkpt>
      <trkpt lat="28.557334" lon="-81.759793">
        <ele>42.100611</ele>
        <time>2026-10-18T08:16:59.000Z</time>
      </trkpt>
      <trkpt lat="28.557323" lon="-81.761536">
        <ele>46.587332</ele>
        <time>2026-10-18T08:17:16.000Z</time>
      </trkpt>
      <trkpt lat="28.557335" lon="-81.762811">
        <ele>48.728427</ele>
        <time>2026-10-18T08:17:28.000Z</time>
      </trkpt>
      <trkpt lat="28.557327" lon="-81.763277">
        <ele>48.34731</ele>
        <time>2026-10-18T08:17:33.000Z</time>
      </trkpt>
      <trkpt lat="28.55734" lon="-81.76509">
        <ele>45.647941</ele>
        <time>2026-10-18T08:17:51.000Z</time>
      </trkpt>
      <trkpt lat="28.557329" lon="-81.765484">
        <ele>44.334555</ele>
        <time>2026-10-18T08:17:55.000Z</time>
      </trkpt>
      <trkpt lat="28.557344" lon="-81.766261">
        <ele>41.763846</ele>
        <time>2026-10-18T08:18:03.000Z</time>
      </trkpt>
      <trkpt lat="28.557349" lon="-81.7669">
        <ele>39.667239</ele>
        <time>2026-10-18T08:18:09.000Z</time>
      </trkpt>
      <trkpt lat="28.557318" lon="-81.767812">
        <ele>37.87087</ele>
        <time>2026-10-18T08:18:18.000Z</time>
      </trkpt>
      <trkpt lat="28.557336" lon="-81.768641">
        <ele>36.279783</ele>
        <time>2026-10-18T08:18:26.000Z</time>
      </trkpt>
      <trkpt lat="28.557333" lon="-81.768716">
        <ele>36.130527</ele>
        <time>2026-10-18T08:18:27.000Z</time>
      </trkpt>
      <trkpt lat="28.557339" lon="-81.769741">
        <ele>35.634143</ele>
        <time>2026-10-18T08:18:37.000Z</time>
      </trkpt>
      <trkpt lat="28.557327" lon="-81.77032">
        <ele>35.693096</ele>
        <time>2026-10-18T08:18:43.000Z</time>
      </trkpt>
      <trkpt lat="28.557268" lon="-81.770425">
        <ele>35.705054</ele>
        <time>2026-10-18T08:18:44.000Z</time>
      </trkpt>
      <trkpt lat="28.557188" lon="-81.770451">
        <ele>35.715225</ele>
        <time>2026-10-18T08:18:45.000Z</time>
      </trkpt>
      <trkpt lat="28.556316" lon="-81.770448">
        <ele>35.113321</ele>
        <time>2026-10-18T08:18:55.000Z</time>
      </trkpt>
      <trkpt lat="28.556305" lon="-81.771406">
        <ele>33.80902</ele>
        <time>2026-10-18T08:19:04.000Z</time>
      </trkpt>
      <trkpt lat="28.556312" lon="-81.771524">
        <ele>33.623484</ele>
        <time>2026-10-18T08:19:05.000Z</time>
      </trkpt>
      <trkpt lat="28.556308" lon="-81.7716">
        <ele>33.526559</ele>
        <time>2026-10-18T08:19:06.000Z</time>
      </trkpt>
      <trkpt lat="28.556322" lon="-81.772425">
        <ele>32.97449</ele>
        <time>2026-10-18T08:19:14.000Z</time>
      </trkpt>
      <trkpt lat="28.556309" lon="-81.77249">
        <ele>32.980169</ele>
        <time>2026-10-18T08:19:15.000Z</time>
      </trkpt>
      <trkpt lat="28.556316" lon="-81.773481">
        <ele>33.080882</ele>
        <time>2026-10-18T08:19:25.000Z</time>
      </trkpt>
      <trkpt lat="28.556322" lon="-81.773847">
        <ele>33.118251</ele>
        <time>2026-10-18T08:19:29.000Z</time>
      </trkpt>
      <trkpt lat="28.55632" lon="-81.774883">
        <ele>33.552143</ele>
        <time>2026-10-18T08:19:39.000Z</time>
      </trkpt>
      <trkpt lat="28.55632" lon="-81.775589">
        <ele>33.911432</ele>
        <time>2026-10-18T08:19:46.000Z</time>
      </trkpt>
      <trkpt lat="28.55661" lon="-81.775589">
        <ele>34.081691</ele>
        <time>2026-10-18T08:19:49.000Z</time>
      </trkpt>
      <trkpt lat="28.557226" lon="-81.775594">
        <ele>33.788668</ele>
        <time>2026-10-18T08:19:56.000Z</time>
      </trkpt>
      <trkpt lat="28.557378" lon="-81.775592">
        <ele>33.663003</ele>
        <time>2026-10-18T08:19:58.000Z</time>
      </trkpt>
      <trkpt lat="28.558348" lon="-81.775584">
        <ele>32.777986</ele>
        <time>2026-10-18T08:20:09.000Z</time>
      </trkpt>
      <trkpt lat="28.558839" lon="-81.775651">
        <ele>32.341987</ele>
        <time>2026-10-18T08:20:14.000Z</time>
      </trkpt>
      <trkpt lat="28.559339" lon="-81.775761">
        <ele>31.870331</ele>
        <time>2026-10-18T08:20:20.000Z</time>
      </trkpt>
      <trkpt lat="28.559698" lon="-81.775835">
        <ele>31.547397</ele>
        <time>2026-10-18T08:20:24.000Z</time>
      </trkpt>
      <trkpt lat="28.559786" lon="-81.775843">
        <ele>31.473423</ele>
        <time>2026-10-18T08:20:25.000Z</time>
      </trkpt>
      <trkpt lat="28.560327" lon="-81.775959">
        <ele>30.977127</ele>
        <time>2026-10-18T08:20:31.000Z</time>
      </trkpt>
      <trkpt lat="28.560788" lon="-81.776067">
        <ele>30.758708</ele>
        <time>2026-10-18T08:20:36.000Z</time>
      </trkpt>
      <trkpt lat="28.561662" lon="-81.776243">
        <ele>30.365347</ele>
        <time>2026-10-18T08:20:46.000Z</time>
      </trkpt>
      <trkpt lat="28.562497" lon="-81.776442">
        <ele>30.114526</ele>
        <time>2026-10-18T08:20:55.000Z</time>
      </trkpt>
      <trkpt lat="28.565447" lon="-81.777043">
        <ele>29.759868</ele>
        <time>2026-10-18T08:21:28.000Z</time>
      </trkpt>
      <trkpt lat="28.565871" lon="-81.777138">
        <ele>29.701674</ele>
        <time>2026-10-18T08:21:33.000Z</time>
      </trkpt>
      <trkpt lat="28.56712" lon="-81.777357">
        <ele>29.529026</ele>
        <time>2026-10-18T08:21:47.000Z</time>
      </trkpt>
      <trkpt lat="28.567543" lon="-81.777492">
        <ele>29.524518</ele>
        <time>2026-10-18T08:21:52.000Z</time>
      </trkpt>
      <trkpt lat="28.568066" lon="-81.777723">
        <ele>29.736579</ele>
        <time>2026-10-18T08:21:58.000Z</time>
      </trkpt>
      <trkpt lat="28.568435" lon="-81.777947">
        <ele>29.89408</ele>
        <time>2026-10-18T08:22:03.000Z</time>
      </trkpt>
      <trkpt lat="28.568894" lon="-81.778317">
        <ele>30.101953</ele>
        <time>2026-10-18T08:22:09.000Z</time>
      </trkpt>
      <trkpt lat="28.570085" lon="-81.779373">
        <ele>30.541364</ele>
        <time>2026-10-18T08:22:26.000Z</time>
      </trkpt>
      <trkpt lat="28.570218" lon="-81.779479">
        <ele>30.585926</ele>
        <time>2026-10-18T08:22:28.000Z</time>
      </trkpt>
      <trkpt lat="28.570657" lon="-81.779884">
        <ele>30.619089</ele>
        <time>2026-10-18T08:22:34.000Z</time>
      </trkpt>
      <trkpt lat="28.57089" lon="-81.780028">
        <ele>30.582537</ele>
        <time>2026-10-18T08:22:37.000Z</time>
      </trkpt>
      <trkpt lat="28.570973" lon="-81.780039">
        <ele>30.569854</ele>
        <time>2026-10-18T08:22:38.000Z</time>
      </trkpt>
      <trkpt lat="28.571053" lon="-81.78005">
        <ele>30.557577</ele>
        <time>2026-10-18T08:22:39.000Z</time>
      </trkpt>
      <trkpt lat="28.571089" lon="-81.780064">
        <ele>30.551023</ele>
        <time>2026-10-18T08:22:39.000Z</time>
      </trkpt>
      <trkpt lat="28.571151" lon="-81.780175">
        <ele>30.534671</ele>
        <time>2026-10-18T08:22:40.000Z</time>
      </trkpt>
      <trkpt lat="28.57115" lon="-81.780228">
        <ele>30.527374</ele>
        <time>2026-10-18T08:22:41.000Z</time>
      </trkpt>
      <trkpt lat="28.571225" lon="-81.780321">
        <ele>30.511964</ele>
        <time>2026-10-18T08:22:42.000Z</time>
      </trkpt>
      <trkpt lat="28.571381" lon="-81.780522">
        <ele>30.476694</ele>
        <time>2026-10-18T08:22:45.000Z</time>
      </trkpt>
      <trkpt lat="28.574111" lon="-81.782923">
        <ele>30.371594</ele>
        <time>2026-10-18T08:23:23.000Z</time>
      </trkpt>
      <trkpt lat="28.574367" lon="-81.783188">
        <ele>30.362849</ele>
        <time>2026-10-18T08:23:27.000Z</time>
      </trkpt>
      <trkpt lat="28.574497" lon="-81.783344">
        <ele>30.357752</ele>
        <time>2026-10-18T08:23:29.000Z</time>
      </trkpt>
      <trkpt lat="28.574683" lon="-81.783607">
        <ele>30.33122</ele>
        <time>2026-10-18T08:23:32.000Z</time>
      </trkpt>
      <trkpt lat="28.574871" lon="-81.783912">
        <ele>30.285379</ele>
        <time>2026-10-18T08:23:36.000Z</time>
      </trkpt>
      <trkpt lat="28.575011" lon="-81.784252">
        <ele>30.23985</ele>
        <time>2026-10-18T08:23:40.000Z</time>
      </trkpt>
      <trkpt lat="28.5751" lon="-81.784457">
        <ele>30.211622</ele>
        <time>2026-10-18T08:23:42.000Z</time>
      </trkpt>
      <trkpt lat="28.575244" lon="-81.784954">
        <ele>30.146132</ele>
        <time>2026-10-18T08:23:47.000Z</time>
      </trkpt>
      <trkpt lat="28.575447" lon="-81.786438">
        <ele>30.482447</ele>
        <time>2026-10-18T08:24:02.000Z</time>
      </trkpt>
      <trkpt lat="28.575454" lon="-81.788091">
        <ele>30.730814</ele>
        <time>2026-10-18T08:24:18.000Z</time>
      </trkpt>
      <trkpt lat="28.577526" lon="-81.788173">
        <ele>30.263304</ele>
        <time>2026-10-18T08:24:41.000Z</time>
      </trkpt>
      <trkpt lat="28.578152" lon="-81.788185">
        <ele>30.010171</ele>
        <time>2026-10-18T08:24:48.000Z</time>
      </trkpt>
      <trkpt lat="28.578494" lon="-81.788144">
        <ele>29.902955</ele>
        <time>2026-10-18T08:24:52.000Z</time>
      </trkpt>
      <trkpt lat="28.579044" lon="-81.788032">
        <ele>29.843094</ele>
        <time>2026-10-18T08:24:58.000Z</time>
      </trkpt>
      <trkpt lat="28.579739" lon="-81.787805">
        <ele>29.763534</ele>
        <time>2026-10-18T08:25:06.000Z</time>
      </trkpt>
      <trkpt lat="28.580309" lon="-81.787539">
        <ele>29.646721</ele>
        <time>2026-10-18T08:25:13.000Z</time>
      </trkpt>
      <trkpt lat="28.581037" lon="-81.787208">
        <ele>29.362191</ele>
        <time>2026-10-18T08:25:22.000Z</time>
      </trkpt>
      <trkpt lat="28.581529" lon="-81.786982">
        <ele>29.174873</ele>
        <time>2026-10-18T08:25:28.000Z</time>
      </trkpt>
      <trkpt lat="28.58243" lon="-81.786573">
        <ele>29.380011</ele>
        <time>2026-10-18T08:25:39.000Z</time>
      </trkpt>
      <trkpt lat="28.582783" lon="-81.786322">
        <ele>29.567608</ele>
        <time>2026-10-18T08:25:44.000Z</time>
      </trkpt>
      <trkpt lat="28.58296" lon="-81.786116">
        <ele>29.678492</ele>
        <time>2026-10-18T08:25:47.000Z</time>
      </trkpt>
      <trkpt lat="28.583079" lon="-81.785941">
        <ele>29.768832</ele>
        <time>2026-10-18T08:25:49.000Z</time>
      </trkpt>
      <trkpt lat="28.583194" lon="-81.785699">
        <ele>29.877677</ele>
        <time>2026-10-18T08:25:52.000Z</time>
      </trkpt>
      <trkpt lat="28.583302" lon="-81.785329">
        <ele>30.016844</ele>
        <time>2026-10-18T08:25:56.000Z</time>
      </trkpt>
      <trkpt lat="28.58333" lon="-81.785208">
        <ele>30.062215</ele>
        <time>2026-10-18T08:25:57.000Z</time>
      </trkpt>
      <trkpt lat="28.583337" lon="-81.784972">
        <ele>30.143808</ele>
        <time>2026-10-18T08:25:59.000Z</time>
      </trkpt>
      <trkpt lat="28.583358" lon="-81.782321">
        <ele>30.727403</ele>
        <time>2026-10-18T08:26:25.000Z</time>
      </trkpt>
      <trkpt lat="28.583362" lon="-81.781919">
        <ele>30.76674</ele>
        <time>2026-10-18T08:26:29.000Z</time>
      </trkpt>
      <trkpt lat="28.583408" lon="-81.781555">
        <ele>30.801273</ele>
        <time>2026-10-18T08:26:33.000Z</time>
      </trkpt>
      <trkpt lat="28.583492" lon="-81.781142">
        <ele>30.841074</ele>
        <time>2026-10-18T08:26:37.000Z</time>
      </trkpt>
      <trkpt lat="28.583595" lon="-81.780796">
        <ele>30.873468</ele>
        <time>2026-10-18T08:26:41.000Z</time>
      </trkpt>
      <trkpt lat="28.583847" lon="-81.780174">
        <ele>30.936428</ele>
        <time>2026-10-18T08:26:48.000Z</time>
      </trkpt>
      <trkpt lat="28.58417" lon="-81.779618">
        <ele>31.049564</ele>
        <time>2026-10-18T08:26:55.000Z</time>
      </trkpt>
      <trkpt lat="28.584849" lon="-81.778755">
        <ele>31.598023</ele>
        <time>2026-10-18T08:27:06.000Z</time>
      </trkpt>
      <trkpt lat="28.585047" lon="-81.778474">
        <ele>31.766882</ele>
        <time>2026-10-18T08:27:10.000Z</time>
      </trkpt>
      <trkpt lat="28.586561" lon="-81.776591">
        <ele>33.510971</ele>
        <time>2026-10-18T08:27:35.000Z</time>
      </trkpt>
      <trkpt lat="28.586671" lon="-81.776449">
        <ele>33.553628</ele>
        <time>2026-10-18T08:27:37.000Z</time>
      </trkpt>
      <trkpt lat="28.588312" lon="-81.774345">
        <ele>34.22149</ele>
        <time>2026-10-18T08:28:04.000Z</time>
      </trkpt>
      <trkpt lat="28.588747" lon="-81.77367">
        <ele>34.453202</ele>
        <time>2026-10-18T08:28:12.000Z</time>
      </trkpt>
      <trkpt lat="28.589022" lon="-81.773105">
        <ele>34.746862</ele>
        <time>2026-10-18T08:28:18.000Z</time>
      </trkpt>
      <trkpt lat="28.589289" lon="-81.772418">
        <ele>35.11515</ele>
        <time>2026-10-18T08:28:25.000Z</time>
      </trkpt>
      <trkpt lat="28.589427" lon="-81.7719">
        <ele>35.37657</ele>
        <time>2026-10-18T08:28:30.000Z</time>
      </trkpt>
      <trkpt lat="28.589496" lon="-81.771505">
        <ele>35.326124</ele>
        <time>2026-10-18T08:28:34.000Z</time>
      </trkpt>
      <trkpt lat="28.589563" lon="-81.770826">
        <ele>34.57773</ele>
        <time>2026-10-18T08:28:41.000Z</time>
      </trkpt>
      <trkpt lat="28.589604" lon="-81.770045">
        <ele>33.733596</ele>
        <time>2026-10-18T08:28:49.000Z</time>
      </trkpt>
      <trkpt lat="28.589709" lon="-81.767598">
        <ele>30.46939</ele>
        <time>2026-10-18T08:29:13.000Z</time>
      </trkpt>
      <trkpt lat="28.589752" lon="-81.766577">
        <ele>30.065481</ele>
        <time>2026-10-18T08:29:23.000Z</time>
      </trkpt>
      <trkpt lat="28.589808" lon="-81.765481">
        <ele>29.669219</ele>
        <time>2026-10-18T08:29:34.000Z</time>
      </trkpt>
      <trkpt lat="28.589859" lon="-81.765224">
        <ele>29.652525</ele>
        <time>2026-10-18T08:29:37.000Z</time>
      </trkpt>
      <trkpt lat="28.590009" lon="-81.764725">
        <ele>29.620452</ele>
        <time>2026-10-18T08:29:42.000Z</time>
      </trkpt>
      <trkpt lat="28.590035" lon="-81.764643">
        <ele>29.615058</ele>
        <time>2026-10-18T08:29:43.000Z</time>
      </trkpt>
      <trkpt lat="28.590346" lon="-81.763681">
        <ele>29.552814</ele>
        <time>2026-10-18T08:29:53.000Z</time>
      </trkpt>
      <trkpt lat="28.590435" lon="-81.763052">
        <ele>29.679303</ele>
        <time>2026-10-18T08:29:59.000Z</time>
      </trkpt>
      <trkpt lat="28.590417" lon="-81.762387">
        <ele>29.84066</ele>
        <time>2026-10-18T08:30:05.000Z</time>
      </trkpt>
      <trkpt lat="28.590421" lon="-81.761905">
        <ele>29.954758</ele>
        <time>2026-10-18T08:30:10.000Z</time>
      </trkpt>
      <trkpt lat="28.590154" lon="-81.76189">
        <ele>30.027778</ele>
        <time>2026-10-18T08:30:13.000Z</time>
      </trkpt>
      <trkpt lat="28.589922" lon="-81.761801">
        <ele>30.151149</ele>
        <time>2026-10-18T08:30:16.000Z</time>
      </trkpt>
      <trkpt lat="28.588534" lon="-81.760924">
        <ele>31.039548</ele>
        <time>2026-10-18T08:30:34.000Z</time>
      </trkpt>
      <trkpt lat="28.58799" lon="-81.760506">
        <ele>31.223933</ele>
        <time>2026-10-18T08:30:41.000Z</time>
      </trkpt>
      <trkpt lat="28.587424" lon="-81.759991">
        <ele>31.422704</ele>
        <time>2026-10-18T08:30:49.000Z</time>
      </trkpt>
      <trkpt lat="28.587245" lon="-81.759816">
        <ele>31.482837</ele>
        <time>2026-10-18T08:30:52.000Z</time>
      </trkpt>
      <trkpt lat="28.586334" lon="-81.758728">
        <ele>30.917341</ele>
        <time>2026-10-18T08:31:07.000Z</time>
      </trkpt>
      <trkpt lat="28.585929" lon="-81.758211">
        <ele>30.575465</ele>
        <time>2026-10-18T08:31:14.000Z</time>
      </trkpt>
      <trkpt lat="28.585595" lon="-81.757836">
        <ele>30.497456</ele>
        <time>2026-10-18T08:31:19.000Z</time>
      </trkpt>
      <trkpt lat="28.585079" lon="-81.757267">
        <ele>30.437308</ele>
        <time>2026-10-18T08:31:27.000Z</time>
      </trkpt>
      <trkpt lat="28.584442" lon="-81.756631">
        <ele>30.43096</ele>
        <time>2026-10-18T08:31:36.000Z</time>
      </trkpt>
      <trkpt lat="28.583937" lon="-81.756209">
        <ele>30.632661</ele>
        <time>2026-10-18T08:31:43.000Z</time>
      </trkpt>
      <trkpt lat="28.582744" lon="-81.75536">
        <ele>31.052928</ele>
        <time>2026-10-18T08:31:59.000Z</time>
      </trkpt>
      <trkpt lat="28.582303" lon="-81.755063">
        <ele>31.167594</ele>
        <time>2026-10-18T08:32:05.000Z</time>
      </trkpt>
      <trkpt lat="28.581741" lon="-81.754746">
        <ele>31.308947</ele>
        <time>2026-10-18T08:32:12.000Z</time>
      </trkpt>
      <trkpt lat="28.581138" lon="-81.754422">
        <ele>31.381999</ele>
        <time>2026-10-18T08:32:19.000Z</time>
      </trkpt>
      <trkpt lat="28.580953" lon="-81.754337">
        <ele>31.387451</ele>
        <time>2026-10-18T08:32:21.000Z</time>
      </trkpt>
      <trkpt lat="28.580782" lon="-81.754237">
        <ele>31.39278</ele>
        <time>2026-10-18T08:32:23.000Z</time>
      </trkpt>
      <trkpt lat="28.580168" lon="-81.753981">
        <ele>31.410977</ele>
        <time>2026-10-18T08:32:30.000Z</time>
      </trkpt>
      <trkpt lat="28.579915" lon="-81.753891">
        <ele>31.418546</ele>
        <time>2026-10-18T08:32:33.000Z</time>
      </trkpt>
      <trkpt lat="28.579659" lon="-81.753788">
        <ele>31.494247</ele>
        <time>2026-10-18T08:32:36.000Z</time>
      </trkpt>
      <trkpt lat="28.579278" lon="-81.753658">
        <ele>31.647774</ele>
        <time>2026-10-18T08:32:40.000Z</time>
      </trkpt>
      <trkpt lat="28.578386" lon="-81.753394">
        <ele>32.014103</ele>
        <time>2026-10-18T08:32:50.000Z</time>
      </trkpt>
      <trkpt lat="28.577472" lon="-81.753227">
        <ele>32.173436</ele>
        <time>2026-10-18T08:33:00.000Z</time>
      </trkpt>
      <trkpt lat="28.576579" lon="-81.753213">
        <ele>32.239603</ele>
        <time>2026-10-18T08:33:10.000Z</time>
      </trkpt>
      <trkpt lat="28.576" lon="-81.75321">
        <ele>32.355804</ele>
        <time>2026-10-18T08:33:16.000Z</time>
      </trkpt>
      <trkpt lat="28.57586" lon="-81.753189">
        <ele>32.398228</ele>
        <time>2026-10-18T08:33:18.000Z</time>
      </trkpt>
      <trkpt lat="28.575856" lon="-81.75319">
        <ele>32.40001</ele>
        <time>2026-10-18T08:33:18.000Z</time>
      </trkpt>
      <trkpt lat="28.575804" lon="-81.753162">
        <ele>32.418088</ele>
        <time>2026-10-18T08:33:19.000Z</time>
      </trkpt>
      <trkpt lat="28.575801" lon="-81.753152">
        <ele>32.423316</ele>
        <time>2026-10-18T08:33:19.000Z</time>
      </trkpt>
      <trkpt lat="28.575759" lon="-81.753134">
        <ele>32.437664</ele>
        <time>2026-10-18T08:33:19.000Z</time>
      </trkpt>
      <trkpt lat="28.575687" lon="-81.753052">
        <ele>32.464924</ele>
        <time>2026-10-18T08:33:20.000Z</time>
      </trkpt>
      <trkpt lat="28.575653" lon="-81.752951">
        <ele>32.495461</ele>
        <time>2026-10-18T08:33:21.000Z</time>
      </trkpt>
      <trkpt lat="28.575661" lon="-81.751988">
        <ele>32.766159</ele>
        <time>2026-10-18T08:33:30.000Z</time>
      </trkpt>
      <trkpt lat="28.575415" lon="-81.751979">
        <ele>32.797182</ele>
        <time>2026-10-18T08:33:33.000Z</time>
      </trkpt>
      <trkpt lat="28.574729" lon="-81.751969">
        <ele>32.368273</ele>
        <time>2026-10-18T08:33:41.000Z</time>
      </trkpt>
      <trkpt lat="28.574326" lon="-81.751973">
        <ele>32.108535</ele>
        <time>2026-10-18T08:33:45.000Z</time>
      </trkpt>
      <trkpt lat="28.573728" lon="-81.75197">
        <ele>31.737476</ele>
        <time>2026-10-18T08:33:52.000Z</time>
      </trkpt>
      <trkpt lat="28.573141" lon="-81.751976">
        <ele>32.103688</ele>
        <time>2026-10-18T08:33:59.000Z</time>
      </trkpt>
      <trkpt lat="28.572846" lon="-81.752013">
        <ele>32.339226</ele>
        <time>2026-10-18T08:34:02.000Z</time>
      </trkpt>
      <trkpt lat="28.572757" lon="-81.752063">
        <ele>32.411397</ele>
        <time>2026-10-18T08:34:03.000Z</time>
      </trkpt>
      <trkpt lat="28.572608" lon="-81.752147">
        <ele>32.552888</ele>
        <time>2026-10-18T08:34:05.000Z</time>
      </trkpt>
      <trkpt lat="28.572521" lon="-81.752235">
        <ele>32.637967</ele>
        <time>2026-10-18T08:34:06.000Z</time>
      </trkpt>
      <trkpt lat="28.572064" lon="-81.752835">
        <ele>33.081581</ele>
        <time>2026-10-18T08:34:14.000Z</time>
      </trkpt>
      <trkpt lat="28.571697" lon="-81.75326">
        <ele>32.981979</ele>
        <time>2026-10-18T08:34:20.000Z</time>
      </trkpt>
      <trkpt lat="28.571353" lon="-81.753514">
        <ele>32.898688</ele>
        <time>2026-10-18T08:34:25.000Z</time>
      </trkpt>
      <trkpt lat="28.571052" lon="-81.753688">
        <ele>32.833626</ele>
        <time>2026-10-18T08:34:29.000Z</time>
      </trkpt>
      <trkpt lat="28.570099" lon="-81.754053">
        <ele>32.618862</ele>
        <time>2026-10-18T08:34:40.000Z</time>
      </trkpt>
      <trkpt lat="28.567852" lon="-81.754821">
        <ele>32.49043</ele>
        <time>2026-10-18T08:35:06.000Z</time>
      </trkpt>
      <trkpt lat="28.565401" lon="-81.75564">
        <ele>33.575626</ele>
        <time>2026-10-18T08:35:34.000Z</time>
      </trkpt>
      <trkpt lat="28.564817" lon="-81.756122">
        <ele>34.434719</ele>
        <time>2026-10-18T08:35:42.000Z</time>
      </trkpt>
      <trkpt lat="28.564619" lon="-81.75621">
        <ele>34.688194</ele>
        <time>2026-10-18T08:35:44.000Z</time>
      </trkpt>
      <trkpt lat="28.56359" lon="-81.756226">
        <ele>36.403836</ele>
        <time>2026-10-18T08:35:55.000Z</time>
      </trkpt>
      <trkpt lat="28.562519" lon="-81.756222">
        <ele>39.905432</ele>
        <time>2026-10-18T08:36:07.000Z</time>
      </trkpt>
      <trkpt lat="28.562415" lon="-81.756215">
        <ele>40.232607</ele>
        <time>2026-10-18T08:36:08.000Z</time>
      </trkpt>
      <trkpt lat="28.5623" lon="-81.756225">
        <ele>40.592157</ele>
        <time>2026-10-18T08:36:09.000Z</time>
      </trkpt>
      <trkpt lat="28.560416" lon="-81.756219">
        <ele>44.509387</ele>
        <time>2026-10-18T08:36:30.000Z</time>
      </trkpt>
      <trkpt lat="28.560379" lon="-81.756237">
        <ele>44.598893</ele>
        <time>2026-10-18T08:36:30.000Z</time>
      </trkpt>
      <trkpt lat="28.559954" lon="-81.756232">
        <ele>44.842701</ele>
        <time>2026-10-18T08:36:35.000Z</time>
      </trkpt>
      <trkpt lat="28.559446" lon="-81.756225">
        <ele>44.806703</ele>
        <time>2026-10-18T08:36:41.000Z</time>
      </trkpt>
      <trkpt lat="28.55924" lon="-81.756231">
        <ele>44.792602</ele>
        <time>2026-10-18T08:36:43.000Z</time>
      </trkpt>
      <trkpt lat="28.558316" lon="-81.756235">
        <ele>44.519714</ele>
        <time>2026-10-18T08:36:53.000Z</time>
      </trkpt>
      <trkpt lat="28.558082" lon="-81.756248">
        <ele>44.149172</ele>
        <time>2026-10-18T08:36:56.000Z</time>
      </trkpt>
      <trkpt lat="28.557831" lon="-81.756235">
        <ele>43.762465</ele>
        <time>2026-10-18T08:36:59.000Z</time>
      </trkpt>
      <trkpt lat="28.557316" lon="-81.756238">
        <ele>42.906509</ele>
        <time>2026-10-18T08:37:05.000Z</time>
      </trkpt>
      <trkpt lat="28.557327" lon="-81.758055">
        <ele>41.009956</ele>
        <time>2026-10-18T08:37:23.000Z</time>
      </trkpt>
      <trkpt lat="28.557335" lon="-81.759794">
        <ele>39.358162</ele>
        <time>2026-10-18T08:37:40.000Z</time>
      </trkpt>
      <trkpt lat="28.557411" lon="-81.759791">
        <ele>39.255612</ele>
        <time>2026-10-18T08:37:41.000Z</time>
      </trkpt>
      <trkpt lat="28.558206" lon="-81.759792">
        <ele>38.170638</ele>
        <time>2026-10-18T08:37:50.000Z</time>
      </trkpt>
      <trkpt lat="28.558303" lon="-81.759758">
        <ele>38.041156</ele>
        <time>2026-10-18T08:37:51.000Z</time>
      </trkpt>
      <trkpt lat="28.558696" lon="-81.759586">
        <ele>37.367729</ele>
        <time>2026-10-18T08:37:56.000Z</time>
      </trkpt>
      <trkpt lat="28.559294" lon="-81.75957">
        <ele>36.285991</ele>
        <time>2026-10-18T08:38:03.000Z</time>
      </trkpt>
      <trkpt lat="28.5598" lon="-81.759794">
        <ele>35.308411</ele>
        <time>2026-10-18T08:38:09.000Z</time>
      </trkpt>
      <trkpt lat="28.559968" lon="-81.759777">
        <ele>35.011378</ele>
        <time>2026-10-18T08:38:11.000Z</time>
      </trkpt>
      <trkpt lat="28.560745" lon="-81.759817">
        <ele>34.810361</ele>
        <time>2026-10-18T08:38:20.000Z</time>
      </trkpt>
      <trkpt lat="28.559965" lon="-81.759777">
        <ele>35.180318</ele>
        <time>2026-10-18T08:38:29.000Z</time>
      </trkpt>
      <trkpt lat="28.559799" lon="-81.759796">
        <ele>35.25766</ele>
        <time>2026-10-18T08:38:31.000Z</time>
      </trkpt>
      <trkpt lat="28.559288" lon="-81.75957">
        <ele>36.064791</ele>
        <time>2026-10-18T08:38:37.000Z</time>
      </trkpt>
      <trkpt lat="28.558697" lon="-81.759584">
        <ele>37.768441</ele>
        <time>2026-10-18T08:38:44.000Z</time>
      </trkpt>
      <trkpt lat="28.55831" lon="-81.759748">
        <ele>38.956118</ele>
        <time>2026-10-18T08:38:49.000Z</time>
      </trkpt>
      <trkpt lat="28.558214" lon="-81.759795">
        <ele>39.228525</ele>
        <time>2026-10-18T08:38:50.000Z</time>
      </trkpt>
      <trkpt lat="28.557403" lon="-81.759797">
        <ele>41.740331</ele>
        <time>2026-10-18T08:38:59.000Z</time>
      </trkpt>
      <trkpt lat="28.557333" lon="-81.759789">
        <ele>42.005452</ele>
        <time>2026-10-18T08:39:00.000Z</time>
      </trkpt>
      <trkpt lat="28.557319" lon="-81.761534">
        <ele>46.955138</ele>
        <time>2026-10-18T08:39:17.000Z</time>
      </trkpt>
      <trkpt lat="28.557326" lon="-81.76281">
        <ele>48.126531</ele>
        <time>2026-10-18T08:39:29.000Z</time>
      </trkpt>
      <trkpt lat="28.557327" lon="-81.763279">
        <ele>48.561301</ele>
        <time>2026-10-18T08:39:34.000Z</time>
      </trkpt>
      <trkpt lat="28.557328" lon="-81.765094">
        <ele>45.460606</ele>
        <time>2026-10-18T08:39:52.000Z</time>
      </trkpt>
      <trkpt lat="28.557343" lon="-81.765484">
        <ele>44.638298</ele>
        <time>2026-10-18T08:39:56.000Z</time>
      </trkpt>
      <trkpt lat="28.557338" lon="-81.766269">
        <ele>42.005683</ele>
        <time>2026-10-18T08:40:04.000Z</time>
      </trkpt>
      <trkpt lat="28.557352" lon="-81.766913">
        <ele>39.85858</ele>
        <time>2026-10-18T08:40:10.000Z</time>
      </trkpt>
      <trkpt lat="28.557325" lon="-81.767801">
        <ele>37.524763</ele>
        <time>2026-10-18T08:40:19.000Z</time>
      </trkpt>
      <trkpt lat="28.557326" lon="-81.768646">
        <ele>36.553875</ele>
        <time>2026-10-18T08:40:27.000Z</time>
      </trkpt>
      <trkpt lat="28.557331" lon="-81.768726">
        <ele>36.462803</ele>
        <time>2026-10-18T08:40:28.000Z</time>
      </trkpt>
      <trkpt lat="28.557336" lon="-81.769744">
        <ele>35.511059</ele>
        <time>2026-10-18T08:40:38.000Z</time>
      </trkpt>
      <trkpt lat="28.557337" lon="-81.770328">
        <ele>35.475597</ele>
        <time>2026-10-18T08:40:44.000Z</time>
      </trkpt>
      <trkpt lat="28.557276" lon="-81.770421">
        <ele>35.468413</ele>
        <time>2026-10-18T08:40:45.000Z</time>
      </trkpt>
      <trkpt lat="28.557191" lon="-81.770441">
        <ele>35.462287</ele>
        <time>2026-10-18T08:40:46.000Z</time>
      </trkpt>
      <trkpt lat="28.556308" lon="-81.770448">
        <ele>35.40107</ele>
        <time>2026-10-18T08:40:56.000Z</time>
      </trkpt>
      <trkpt lat="28.556319" lon="-81.771391">
        <ele>34.059147</ele>
        <time>2026-10-18T08:41:05.000Z</time>
      </trkpt>
      <trkpt lat="28.556301" lon="-81.771542">
        <ele>33.860048</ele>
        <time>2026-10-18T08:41:06.000Z</time>
      </trkpt>
      <trkpt lat="28.556312" lon="-81.771606">
        <ele>33.756055</ele>
        <time>2026-10-18T08:41:07.000Z</time>
      </trkpt>
      <trkpt lat="28.556311" lon="-81.772432">
        <ele>32.522876</ele>
        <time>2026-10-18T08:41:15.000Z</time>
      </trkpt>
      <trkpt lat="28.556318" lon="-81.772481">
        <ele>32.439674</ele>
        <time>2026-10-18T08:41:15.000Z</time>
      </trkpt>
      <trkpt lat="28.556318" lon="-81.773491">
        <ele>32.993315</ele>
        <time>2026-10-18T08:41:25.000Z</time>
      </trkpt>
      <trkpt lat="28.556315" lon="-81.773861">
        <ele>33.244009</ele>
        <time>2026-10-18T08:41:29.000Z</time>
      </trkpt>
      <trkpt lat="28.556325" lon="-81.77488">
        <ele>33.760101</ele>
        <time>2026-10-18T08:41:39.000Z</time>
      </trkpt>
      <trkpt lat="28.556318" lon="-81.775588">
        <ele>33.790805</ele>
        <time>2026-10-18T08:41:46.000Z</time>
      </trkpt>
      <trkpt lat="28.556614" lon="-81.775593">
        <ele>33.805365</ele>
        <time>2026-10-18T08:41:49.000Z</time>
      </trkpt>
      <trkpt lat="28.557228" lon="-81.7756">
        <ele>33.83615</ele>
        <time>2026-10-18T08:41:56.000Z</time>
      </trkpt>
      <trkpt lat="28.557372" lon="-81.775585">
        <ele>33.718692</ele>
        <time>2026-10-18T08:41:58.000Z</time>
      </trkpt>
      <trkpt lat="28.558348" lon="-81.775599">
        <ele>32.811378</ele>
        <time>2026-10-18T08:42:09.000Z</time>
      </trkpt>
      <trkpt lat="28.558837" lon="-81.775653">
        <ele>32.362497</ele>
        <time>2026-10-18T08:42:14.000Z</time>
      </trkpt>
      <trkpt lat="28.559351" lon="-81.77575">
        <ele>31.895052</ele>
        <time>2026-10-18T08:42:20.000Z</time>
      </trkpt>
      <trkpt lat="28.559697" lon="-81.775827">
        <ele>31.584016</ele>
        <time>2026-10-18T08:42:24.000Z</time>
      </trkpt>
      <trkpt lat="28.559776" lon="-81.77584">
        <ele>31.512763</ele>
        <time>2026-10-18T08:42:25.000Z</time>
      </trkpt>
      <trkpt lat="28.560335" lon="-81.775964">
        <ele>31.034757</ele>
        <time>2026-10-18T08:42:31.000Z</time>
      </trkpt>
      <trkpt lat="28.560786" lon="-81.776065">
        <ele>30.635079</ele>
        <time>2026-10-18T08:42:36.000Z</time>
      </trkpt>
      <trkpt lat="28.561662" lon="-81.776254">
        <ele>30.364103</ele>
        <time>2026-10-18T08:42:46.000Z</time>
      </trkpt>
      <trkpt lat="28.562494" lon="-81.776433">
        <ele>30.115988</ele>
        <time>2026-10-18T08:42:55.000Z</time>
      </trkpt>
      <trkpt lat="28.56544" lon="-81.77705">
        <ele>29.742921</ele>
        <time>2026-10-18T08:43:28.000Z</time>
      </trkpt>
      <trkpt lat="28.565887" lon="-81.777143">
        <ele>29.676077</ele>
        <time>2026-10-18T08:43:33.000Z</time>
      </trkpt>
      <trkpt lat="28.567121" lon="-81.777373">
        <ele>29.598849</ele>
        <time>2026-10-18T08:43:47.000Z</time>
      </trkpt>
      <trkpt lat="28.567542" lon="-81.777487">
        <ele>29.580992</ele>
        <time>2026-10-18T08:43:52.000Z</time>
      </trkpt>
      <trkpt lat="28.568064" lon="-81.777726">
        <ele>29.669492</ele>
        <time>2026-10-18T08:43:58.000Z</time>
      </trkpt>
      <trkpt lat="28.568437" lon="-81.777948">
        <ele>29.859139</ele>
        <time>2026-10-18T08:44:03.000Z</time>
      </trkpt>
      <trkpt lat="28.568903" lon="-81.778328">
        <ele>30.109442</ele>
        <time>2026-10-18T08:44:09.000Z</time>
      </trkpt>
      <trkpt lat="28.570095" lon="-81.779384">
        <ele>30.483349</ele>
        <time>2026-10-18T08:44:26.000Z</time>
      </trkpt>
      <trkpt lat="28.570213" lon="-81.779496">
        <ele>30.502675</ele>
        <time>2026-10-18T08:44:28.000Z</time>
      </trkpt>
      <trkpt lat="28.570669" lon="-81.779895">
        <ele>30.573421</ele>
        <time>2026-10-18T08:44:34.000Z</time>
      </trkpt>
      <trkpt lat="28.570877" lon="-81.780017">
        <ele>30.581279</ele>
        <time>2026-10-18T08:44:37.000Z</time>
      </trkpt>
      <trkpt lat="28.570961" lon="-81.780051">
        <ele>30.572013</ele>
        <time>2026-10-18T08:44:38.000Z</time>
      </trkpt>
      <trkpt lat="28.571052" lon="-81.780038">
        <ele>30.563034</ele>
        <time>2026-10-18T08:44:39.000Z</time>
      </trkpt>
      <trkpt lat="28.571093" lon="-81.780061">
        <ele>30.558236</ele>
        <time>2026-10-18T08:44:40.000Z</time>
      </trkpt>
      <trkpt lat="28.571149" lon="-81.78018">
        <ele>30.546281</ele>
        <time>2026-10-18T08:44:41.000Z</time>
      </trkpt>
      <trkpt lat="28.571147" lon="-81.780228">
        <ele>30.540947</ele>
        <time>2026-10-18T08:44:41.000Z</time>
      </trkpt>
      <trkpt lat="28.571223" lon="-81.780324">
        <ele>30.52967</ele>
        <time>2026-10-18T08:44:42.000Z</time>
      </trkpt>
      <trkpt lat="28.571378" lon="-81.780522">
        <ele>30.503894</ele>
        <time>2026-10-18T08:44:45.000Z</time>
      </trkpt>
      <trkpt lat="28.574097" lon="-81.782929">
        <ele>30.359234</ele>
        <time>2026-10-18T08:45:23.000Z</time>
      </trkpt>
      <trkpt lat="28.574367" lon="-81.78319">
        <ele>30.338265</ele>
        <time>2026-10-18T08:45:27.000Z</time>
      </trkpt>
      <trkpt lat="28.574507" lon="-81.783349">
        <ele>30.326013</ele>
        <time>2026-10-18T08:45:29.000Z</time>
      </trkpt>
      <trkpt lat="28.574693" lon="-81.783616">
        <ele>30.308074</ele>
        <time>2026-10-18T08:45:32.000Z</time>
      </trkpt>
      <trkpt lat="28.574875" lon="-81.78392">
        <ele>30.287389</ele>
        <time>2026-10-18T08:45:36.000Z</time>
      </trkpt>
      <trkpt lat="28.575016" lon="-81.784238">
        <ele>30.260284</ele>
        <time>2026-10-18T08:45:39.000Z</time>
      </trkpt>
      <trkpt lat="28.575098" lon="-81.784443">
        <ele>30.243468</ele>
        <time>2026-10-18T08:45:41.000Z</time>
      </trkpt>
      <trkpt lat="28.575252" lon="-81.78495">
        <ele>30.204478</ele>
        <time>2026-10-18T08:45:46.000Z</time>
      </trkpt>
      <trkpt lat="28.575446" lon="-81.786453">
        <ele>30.39347</ele>
        <time>2026-10-18T08:46:01.000Z</time>
      </trkpt>
      <trkpt lat="28.575444" lon="-81.788078">
        <ele>30.903397</ele>
        <time>2026-10-18T08:46:17.000Z</time>
      </trkpt>
      <trkpt lat="28.577531" lon="-81.788182">
        <ele>30.25312</ele>
        <time>2026-10-18T08:46:40.000Z</time>
      </trkpt>
      <trkpt lat="28.57815" lon="-81.788174">
        <ele>30.074779</ele>
        <time>2026-10-18T08:46:47.000Z</time>
      </trkpt>
      <trkpt lat="28.578498" lon="-81.78814">
        <ele>29.979136</ele>
        <time>2026-10-18T08:46:51.000Z</time>
      </trkpt>
      <trkpt lat="28.579031" lon="-81.788045">
        <ele>29.843124</ele>
        <time>2026-10-18T08:46:57.000Z</time>
      </trkpt>
      <trkpt lat="28.579735" lon="-81.787799">
        <ele>29.708111</ele>
        <time>2026-10-18T08:47:05.000Z</time>
      </trkpt>
      <trkpt lat="28.580308" lon="-81.787537">
        <ele>29.593197</ele>
        <time>2026-10-18T08:47:12.000Z</time>
      </trkpt>
      <trkpt lat="28.581047" lon="-81.787215">
        <ele>29.41251</ele>
        <time>2026-10-18T08:47:21.000Z</time>
      </trkpt>
      <trkpt lat="28.581513" lon="-81.78699">
        <ele>29.282496</ele>
        <time>2026-10-18T08:47:27.000Z</time>
      </trkpt>
      <trkpt lat="28.582425" lon="-81.786566">
        <ele>29.236117</ele>
        <time>2026-10-18T08:47:38.000Z</time>
      </trkpt>
      <trkpt lat="28.58278" lon="-81.786313">
        <ele>29.483925</ele>
        <time>2026-10-18T08:47:43.000Z</time>
      </trkpt>
      <trkpt lat="28.582959" lon="-81.786128">
        <ele>29.630404</ele>
        <time>2026-10-18T08:47:46.000Z</time>
      </trkpt>
      <trkpt lat="28.583089" lon="-81.785953">
        <ele>29.74973</ele>
        <time>2026-10-18T08:47:48.000Z</time>
      </trkpt>
      <trkpt lat="28.583198" lon="-81.785705">
        <ele>29.893529</ele>
        <time>2026-10-18T08:47:51.000Z</time>
      </trkpt>
      <trkpt lat="28.583307" lon="-81.785332">
        <ele>30.103448</ele>
        <time>2026-10-18T08:47:55.000Z</time>
      </trkpt>
      <trkpt lat="28.583316" lon="-81.785194">
        <ele>30.172472</ele>
        <time>2026-10-18T08:47:56.000Z</time>
      </trkpt>
      <trkpt lat="28.583349" lon="-81.784963">
        <ele>30.231674</ele>
        <time>2026-10-18T08:47:58.000Z</time>
      </trkpt>
      <trkpt lat="28.583352" lon="-81.782321">
        <ele>30.72462</ele>
        <time>2026-10-18T08:48:24.000Z</time>
      </trkpt>
      <trkpt lat="28.58337" lon="-81.781916">
        <ele>30.74956</ele>
        <time>2026-10-18T08:48:28.000Z</time>
      </trkpt>
      <trkpt lat="28.583419" lon="-81.781572">
        <ele>30.771656</ele>
        <time>2026-10-18T08:48:31.000Z</time>
      </trkpt>
      <trkpt lat="28.583509" lon="-81.78113">
        <ele>30.798534</ele>
        <time>2026-10-18T08:48:35.000Z</time>
      </trkpt>
      <trkpt lat="28.583592" lon="-81.780802">
        <ele>30.853997</ele>
        <time>2026-10-18T08:48:38.000Z</time>
      </trkpt>
      <trkpt lat="28.583858" lon="-81.780177">
        <ele>30.966581</ele>
        <time>2026-10-18T08:48:45.000Z</time>
      </trkpt>
      <trkpt lat="28.584162" lon="-81.779627">
        <ele>31.073181</ele>
        <time>2026-10-18T08:48:51.000Z</time>
      </trkpt>
      <trkpt lat="28.58485" lon="-81.778745">
        <ele>31.602274</ele>
        <time>2026-10-18T08:49:03.000Z</time>
      </trkpt>
      <trkpt lat="28.585056" lon="-81.778484">
        <ele>31.813902</ele>
        <time>2026-10-18T08:49:06.000Z</time>
      </trkpt>
      <trkpt lat="28.586545" lon="-81.776588">
        <ele>33.444088</ele>
        <time>2026-10-18T08:49:31.000Z</time>
      </trkpt>
      <trkpt lat="28.586676" lon="-81.776451">
        <ele>33.578235</ele>
        <time>2026-10-18T08:49:33.000Z</time>
      </trkpt>
      <trkpt lat="28.588307" lon="-81.774343">
        <ele>34.212665</ele>
        <time>2026-10-18T08:50:00.000Z</time>
      </trkpt>
      <trkpt lat="28.58875" lon="-81.773684">
        <ele>34.566359</ele>
        <time>2026-10-18T08:50:08.000Z</time>
      </trkpt>
      <trkpt lat="28.589034" lon="-81.773099">
        <ele>34.8422</ele>
        <time>2026-10-18T08:50:15.000Z</time>
      </trkpt>
      <trkpt lat="28.589292" lon="-81.772414">
        <ele>34.990104</ele>
        <time>2026-10-18T08:50:22.000Z</time>
      </trkpt>
      <trkpt lat="28.589412" lon="-81.771892">
        <ele>35.095096</ele>
        <time>2026-10-18T08:50:27.000Z</time>
      </trkpt>
      <trkpt lat="28.589497" lon="-81.771507">
        <ele>35.172633</ele>
        <time>2026-10-18T08:50:31.000Z</time>
      </trkpt>
      <trkpt lat="28.589566" lon="-81.77083">
        <ele>34.798113</ele>
        <time>2026-10-18T08:50:38.000Z</time>
      </trkpt>
      <trkpt lat="28.589599" lon="-81.770054">
        <ele>33.749129</ele>
        <time>2026-10-18T08:50:46.000Z</time>
      </trkpt>
      <trkpt lat="28.589712" lon="-81.767594">
        <ele>30.672772</ele>
        <time>2026-10-18T08:51:10.000Z</time>
      </trkpt>
      <trkpt lat="28.589765" lon="-81.766592">
        <ele>29.934636</ele>
        <time>2026-10-18T08:51:20.000Z</time>
      </trkpt>
      <trkpt lat="28.589812" lon="-81.765496">
        <ele>29.715701</ele>
        <time>2026-10-18T08:51:31.000Z</time>
      </trkpt>
      <trkpt lat="28.589865" lon="-81.765223">
        <ele>29.660783</ele>
        <time>2026-10-18T08:51:34.000Z</time>
      </trkpt>
      <trkpt lat="28.590008" lon="-81.764718">
        <ele>29.619368</ele>
        <time>2026-10-18T08:51:39.000Z</time>
      </trkpt>
      <trkpt lat="28.590031" lon="-81.764644">
        <ele>29.618747</ele>
        <time>2026-10-18T08:51:40.000Z</time>
      </trkpt>
      <trkpt lat="28.590349" lon="-81.763687">
        <ele>29.611595</ele>
        <time>2026-10-18T08:51:50.000Z</time>
      </trkpt>
      <trkpt lat="28.590423" lon="-81.763046">
        <ele>29.617214</ele>
        <time>2026-10-18T08:51:56.000Z</time>
      </trkpt>
      <trkpt lat="28.590424" lon="-81.762381">
        <ele>29.831864</ele>
        <time>2026-10-18T08:52:02.000Z</time>
      </trkpt>
      <trkpt lat="28.590421" lon="-81.761921">
        <ele>29.983657</ele>
        <time>2026-10-18T08:52:06.000Z</time>
      </trkpt>
      <trkpt lat="28.590148" lon="-81.761897">
        <ele>30.080789</ele>
        <time>2026-10-18T08:52:09.000Z</time>
      </trkpt>
      <trkpt lat="28.589916" lon="-81.761786">
        <ele>30.17206</ele>
        <time>2026-10-18T08:52:12.000Z</time>
      </trkpt>
      <trkpt lat="28.588542" lon="-81.760921">
        <ele>31.043079</ele>
        <time>2026-10-18T08:52:29.000Z</time>
      </trkpt>
      <trkpt lat="28.587983" lon="-81.760506">
        <ele>31.324368</ele>
        <time>2026-10-18T08:52:36.000Z</time>
      </trkpt>
      <trkpt lat="28.587423" lon="-81.759994">
        <ele>31.33013</ele>
        <time>2026-10-18T08:52:44.000Z</time>
      </trkpt>
      <trkpt lat="28.587243" lon="-81.759815">
        <ele>31.331886</ele>
        <time>2026-10-18T08:52:47.000Z</time>
      </trkpt>
      <trkpt lat="28.586343" lon="-81.758715">
        <ele>30.980427</ele>
        <time>2026-10-18T08:53:02.000Z</time>
      </trkpt>
      <trkpt lat="28.585931" lon="-81.758228">
        <ele>30.650748</ele>
        <time>2026-10-18T08:53:09.000Z</time>
      </trkpt>
      <trkpt lat="28.585605" lon="-81.75783">
        <ele>30.395647</ele>
        <time>2026-10-18T08:53:14.000Z</time>
      </trkpt>
      <trkpt lat="28.585077" lon="-81.757274">
        <ele>30.414742</ele>
        <time>2026-10-18T08:53:22.000Z</time>
      </trkpt>
      <trkpt lat="28.584451" lon="-81.756626">
        <ele>30.482057</ele>
        <time>2026-10-18T08:53:31.000Z</time>
      </trkpt>
      <trkpt lat="28.583942" lon="-81.7562">
        <ele>30.617463</ele>
        <time>2026-10-18T08:53:38.000Z</time>
      </trkpt>
      <trkpt lat="28.582738" lon="-81.755359">
        <ele>31.099003</ele>
        <time>2026-10-18T08:53:54.000Z</time>
      </trkpt>
      <trkpt lat="28.582304" lon="-81.755067">
        <ele>31.174381</ele>
        <time>2026-10-18T08:54:00.000Z</time>
      </trkpt>
      <trkpt lat="28.581754" lon="-81.754739">
        <ele>31.254988</ele>
        <time>2026-10-18T08:54:07.000Z</time>
      </trkpt>
      <trkpt lat="28.58114" lon="-81.754411">
        <ele>31.343112</ele>
        <time>2026-10-18T08:54:15.000Z</time>
      </trkpt>
      <trkpt lat="28.580952" lon="-81.754335">
        <ele>31.36924</ele>
        <time>2026-10-18T08:54:17.000Z</time>
      </trkpt>
      <trkpt lat="28.580776" lon="-81.754244">
        <ele>31.394947</ele>
        <time>2026-10-18T08:54:19.000Z</time>
      </trkpt>
      <trkpt lat="28.580168" lon="-81.753974">
        <ele>31.482942</ele>
        <time>2026-10-18T08:54:26.000Z</time>
      </trkpt>
      <trkpt lat="28.579913" lon="-81.753884">
        <ele>31.519568</ele>
        <time>2026-10-18T08:54:29.000Z</time>
      </trkpt>
      <trkpt lat="28.579654" lon="-81.753785">
        <ele>31.557384</ele>
        <time>2026-10-18T08:54:32.000Z</time>
      </trkpt>
      <trkpt lat="28.579285" lon="-81.753667">
        <ele>31.633237</ele>
        <time>2026-10-18T08:54:36.000Z</time>
      </trkpt>
      <trkpt lat="28.578382" lon="-81.753405">
        <ele>31.928326</ele>
        <time>2026-10-18T08:54:46.000Z</time>
      </trkpt>
      <trkpt lat="28.577483" lon="-81.753228">
        <ele>32.19333</ele>
        <time>2026-10-18T08:54:56.000Z</time>
      </trkpt>
      <trkpt lat="28.576586" lon="-81.753212">
        <ele>32.356103</ele>
        <time>2026-10-18T08:55:06.000Z</time>
      </trkpt>
      <trkpt lat="28.576009" lon="-81.753207">
        <ele>32.462876</ele>
        <time>2026-10-18T08:55:12.000Z</time>
      </trkpt>
      <trkpt lat="28.575862" lon="-81.753187">
        <ele>32.487405</ele>
        <time>2026-10-18T08:55:14.000Z</time>
      </trkpt>
      <trkpt lat="28.575853" lon="-81.753193">
        <ele>32.488436</ele>
        <time>2026-10-18T08:55:14.000Z</time>
      </trkpt>
      <trkpt lat="28.575803" lon="-81.753157">
        <ele>32.490434</ele>
        <time>2026-10-18T08:55:15.000Z</time>
      </trkpt>
      <trkpt lat="28.575786" lon="-81.753143">
        <ele>32.490527</ele>
        <time>2026-10-18T08:55:15.000Z</time>
      </trkpt>
      <trkpt lat="28.57576" lon="-81.753136">
        <ele>32.490812</ele>
        <time>2026-10-18T08:55:15.000Z</time>
      </trkpt>
      <trkpt lat="28.575695" lon="-81.753066">
        <ele>32.491327</ele>
        <time>2026-10-18T08:55:16.000Z</time>
      </trkpt>
      <trkpt lat="28.575659" lon="-81.752958">
        <ele>32.491905</ele>
        <time>2026-10-18T08:55:17.000Z</time>
      </trkpt>
      <trkpt lat="28.57567" lon="-81.751988">
        <ele>32.49704</ele>
        <time>2026-10-18T08:55:26.000Z</time>
      </trkpt>
      <trkpt lat="28.575419" lon="-81.751988">
        <ele>32.498503</ele>
        <time>2026-10-18T08:55:29.000Z</time>
      </trkpt>
      <trkpt lat="28.574745" lon="-81.751972">
        <ele>32.417793</ele>
        <time>2026-10-18T08:55:36.000Z</time>
      </trkpt>
      <trkpt lat="28.574326" lon="-81.751975">
        <ele>32.294644</ele>
        <time>2026-10-18T08:55:41.000Z</time>
      </trkpt>
      <trkpt lat="28.573733" lon="-81.751984">
        <ele>32.118726</ele>
        <time>2026-10-18T08:55:48.000Z</time>
      </trkpt>
      <trkpt lat="28.573147" lon="-81.751981">
        <ele>32.011127</ele>
        <time>2026-10-18T08:55:55.000Z</time>
      </trkpt>
      <trkpt lat="28.572855" lon="-81.752016">
        <ele>32.213826</ele>
        <time>2026-10-18T08:55:58.000Z</time>
      </trkpt>
      <trkpt lat="28.572769" lon="-81.75206">
        <ele>32.275921</ele>
        <time>2026-10-18T08:55:59.000Z</time>
      </trkpt>
      <trkpt lat="28.572599" lon="-81.752159">
        <ele>32.397695</ele>
        <time>2026-10-18T08:56:01.000Z</time>
      </trkpt>
      <trkpt lat="28.572516" lon="-81.752243">
        <ele>32.470903</ele>
        <time>2026-10-18T08:56:02.000Z</time>
      </trkpt>
      <trkpt lat="28.572066" lon="-81.752848">
        <ele>32.946304</ele>
        <time>2026-10-18T08:56:10.000Z</time>
      </trkpt>
      <trkpt lat="28.571706" lon="-81.753258">
        <ele>33.122869</ele>
        <time>2026-10-18T08:56:16.000Z</time>
      </trkpt>
      <trkpt lat="28.571356" lon="-81.753524">
        <ele>32.986666</ele>
        <time>2026-10-18T08:56:21.000Z</time>
      </trkpt>
      <trkpt lat="28.571069" lon="-81.753683">
        <ele>32.88028</ele>
        <time>2026-10-18T08:56:25.000Z</time>
      </trkpt>
      <trkpt lat="28.570101" lon="-81.754062">
        <ele>32.573506</ele>
        <time>2026-10-18T08:56:36.000Z</time>
      </trkpt>
      <trkpt lat="28.567846" lon="-81.754819">
        <ele>32.491866</ele>
        <time>2026-10-18T08:57:02.000Z</time>
      </trkpt>
      <trkpt lat="28.56541" lon="-81.755652">
        <ele>33.496612</ele>
        <time>2026-10-18T08:57:30.000Z</time>
      </trkpt>
      <trkpt lat="28.564807" lon="-81.756113">
        <ele>34.329118</ele>
        <time>2026-10-18T08:57:38.000Z</time>
      </trkpt>
      <trkpt lat="28.564616" lon="-81.75621">
        <ele>34.724212</ele>
        <time>2026-10-18T08:57:40.000Z</time>
      </trkpt>
      <trkpt lat="28.563589" lon="-81.756214">
        <ele>36.615498</ele>
        <time>2026-10-18T08:57:51.000Z</time>
      </trkpt>
      <trkpt lat="28.562512" lon="-81.756216">
        <ele>39.704682</ele>
        <time>2026-10-18T08:58:03.000Z</time>
      </trkpt>
      <trkpt lat="28.562405" lon="-81.756209">
        <ele>40.017423</ele>
        <time>2026-10-18T08:58:04.000Z</time>
      </trkpt>
      <trkpt lat="28.562298" lon="-81.756218">
        <ele>40.36115</ele>
        <time>2026-10-18T08:58:05.000Z</time>
      </trkpt>
      <trkpt lat="28.560425" lon="-81.756223">
        <ele>44.264822</ele>
        <time>2026-10-18T08:58:26.000Z</time>
      </trkpt>
      <trkpt lat="28.56038" lon="-81.756222">
        <ele>44.333507</ele>
        <time>2026-10-18T08:58:27.000Z</time>
      </trkpt>
      <trkpt lat="28.559957" lon="-81.756233">
        <ele>44.954577</ele>
        <time>2026-10-18T08:58:32.000Z</time>
      </trkpt>
      <trkpt lat="28.559434" lon="-81.75624">
        <ele>44.997324</ele>
        <time>2026-10-18T08:58:38.000Z</time>
      </trkpt>
      <trkpt lat="28.559243" lon="-81.756232">
        <ele>44.882495</ele>
        <time>2026-10-18T08:58:40.000Z</time>
      </trkpt>
      <trkpt lat="28.558312" lon="-81.756246">
        <ele>44.345603</ele>
        <time>2026-10-18T08:58:50.000Z</time>
      </trkpt>
      <trkpt lat="28.558082" lon="-81.756249">
        <ele>44.214109</ele>
        <time>2026-10-18T08:58:53.000Z</time>
      </trkpt>
      <trkpt lat="28.557839" lon="-81.756249">
        <ele>43.908899</ele>
        <time>2026-10-18T08:58:56.000Z</time>
      </trkpt>
      <trkpt lat="28.557311" lon="-81.756245">
        <ele>43.013669</ele>
        <time>2026-10-18T08:59:02.000Z</time>
      </trkpt>
      <trkpt lat="28.55732" lon="-81.75806">
        <ele>40.837865</ele>
        <time>2026-10-18T08:59:20.000Z</time>
      </trkpt>
      <trkpt lat="28.557329" lon="-81.759795">
        <ele>39.678825</ele>
        <time>2026-10-18T08:59:37.000Z</time>
      </trkpt>
      <trkpt lat="28.557412" lon="-81.759787">
        <ele>39.538608</ele>
        <time>2026-10-18T08:59:38.000Z</time>
      </trkpt>
      <trkpt lat="28.558217" lon="-81.759793">
        <ele>38.055338</ele>
        <time>2026-10-18T08:59:47.000Z</time>
      </trkpt>
      <trkpt lat="28.5583" lon="-81.75976">
        <ele>37.878343</ele>
        <time>2026-10-18T08:59:48.000Z</time>
      </trkpt>
      <trkpt lat="28.558692" lon="-81.759571">
        <ele>37.106613</ele>
        <time>2026-10-18T08:59:53.000Z</time>
      </trkpt>
      <trkpt lat="28.559297" lon="-81.759568">
        <ele>36.4049242699</ele>
        <time>2026-10-18T09:00:00.000Z</time>
      </trkpt>
      <trkpt lat="28.559795" lon="-81.759781">
        <ele>35.7879299922</ele>
        <time>2026-10-18T09:00:06.000Z</time>
      </trkpt>
      <trkpt lat="28.559957" lon="-81.759779">
        <ele>35.6000305232</ele>
        <time>2026-10-18T09:00:08.000Z</time>
      </trkpt>
      <trkpt lat="28.560756" lon="-81.759827">
        <ele>34.672057157</ele>
        <time>2026-10-18T09:00:17.000Z</time>
      </trkpt>
    </trkseg>
  </trk>
</gpx>

<!--
Performance optimized by W3 Total Cache. Learn more: https://www.boldgrid.com/w3-total-cache/?utm_source=w3tc&utm_medium=footer_comment&utm_campaign=free_plugin

Page Caching using Disk: Enhanced{w3tc_pagecache_reject_reason} 

Served from: www.aquabike.world @ 2026-05-10 20:19:57 by W3 Total Cache
-->